createdAt,value
2023-01-29T00:01:12.780Z,4.50
2023-01-29T00:03:42.239Z,5.20
2023-01-29T00:06:12.915Z,5.00
2023-01-29T00:08:42.162Z,4.70
2023-01-29T00:11:14.075Z,5.10
2023-01-29T00:13:42.535Z,4.60
2023-01-29T00:16:11.618Z,4.10
2023-01-29T00:18:42.707Z,4.23
2023-01-29T00:21:15.401Z,4.40
2023-01-29T00:23:44.001Z,4.30
2023-01-29T00:26:12.927Z,4.20
2023-01-29T00:28:46.077Z,4.10
2023-01-29T00:31:16.534Z,4.30
2023-01-29T00:33:45.611Z,4.43
2023-01-29T00:36:16.814Z,4.50
2023-01-29T00:38:46.436Z,4.27
2023-01-29T00:41:33.804Z,4.50
2023-01-29T00:44:20.326Z,4.50
2023-01-29T00:46:48.799Z,5.07
2023-01-29T00:49:17.423Z,4.53
2023-01-29T00:52:08.564Z,4.50
2023-01-29T00:54:37.441Z,4.40
2023-01-29T00:57:05.810Z,4.40
2023-01-29T00:59:34.202Z,4.27
2023-01-29T01:02:20.135Z,4.03
2023-01-29T01:04:48.687Z,3.70
2023-01-29T01:07:18.633Z,4.00
2023-01-29T01:10:04.301Z,4.50
2023-01-29T01:12:33.463Z,4.23
2023-01-29T01:15:01.976Z,3.80
2023-01-29T01:17:30.381Z,3.43
2023-01-29T01:19:58.853Z,3.20
2023-01-29T01:22:28.889Z,3.43
2023-01-29T01:24:57.308Z,3.70
2023-01-29T01:27:25.667Z,3.73
2023-01-29T01:29:54.030Z,3.80
2023-01-29T01:32:22.432Z,3.50
2023-01-29T01:34:50.728Z,3.80
2023-01-29T01:37:19.081Z,3.83
2023-01-29T01:39:50.551Z,3.37
2023-01-29T01:42:18.956Z,3.43
2023-01-29T01:44:58.596Z,3.77
2023-01-29T01:47:31.833Z,3.07
2023-01-29T01:50:04.127Z,3.40
2023-01-29T01:52:33.780Z,3.13
2023-01-29T01:55:04.223Z,3.20
2023-01-29T01:57:33.964Z,3.23
2023-01-29T02:00:11.108Z,3.30
2023-01-29T02:03:02.976Z,2.80
2023-01-29T02:05:51.651Z,2.97
2023-01-29T02:08:44.332Z,3.00
2023-01-29T02:11:14.869Z,3.07
2023-01-29T02:13:46.165Z,2.73
2023-01-29T02:16:14.650Z,2.60
2023-01-29T02:18:43.249Z,2.57
2023-01-29T02:21:29.224Z,2.60
2023-01-29T02:24:21.815Z,2.73
2023-01-29T02:27:05.401Z,2.90
2023-01-29T02:29:42.079Z,2.97
2023-01-29T02:32:21.689Z,2.90
2023-01-29T02:35:18.974Z,3.43
2023-01-29T02:37:58.402Z,3.00
2023-01-29T02:40:32.226Z,2.83
2023-01-29T02:43:09.928Z,2.93
2023-01-29T02:45:48.595Z,2.40
2023-01-29T02:48:20.897Z,3.20
2023-01-29T02:50:56.712Z,3.10
2023-01-29T02:53:33.670Z,2.53
2023-01-29T02:56:08.213Z,2.90
2023-01-29T02:58:40.879Z,3.33
2023-01-29T03:01:18.098Z,3.00
2023-01-29T03:03:51.840Z,2.90
2023-01-29T03:06:26.238Z,2.70
2023-01-29T03:09:00.227Z,3.07
2023-01-29T03:11:34.351Z,2.87
2023-01-29T03:14:07.412Z,2.70
2023-01-29T03:16:42.252Z,3.03
2023-01-29T03:19:16.524Z,2.97
2023-01-29T03:21:55.116Z,2.93
2023-01-29T03:24:49.470Z,3.40
2023-01-29T03:27:39.169Z,3.33
2023-01-29T03:30:29.647Z,3.00
2023-01-29T03:33:12.552Z,2.90
2023-01-29T03:35:48.359Z,3.07
2023-01-29T03:38:17.410Z,3.17
2023-01-29T03:40:53.597Z,3.50
2023-01-29T03:43:33.307Z,3.50
2023-01-29T03:46:09.382Z,3.40
2023-01-29T03:48:43.095Z,3.20
2023-01-29T03:51:21.160Z,3.57
2023-01-29T03:53:53.173Z,3.73
2023-01-29T03:56:32.231Z,3.80
2023-01-29T03:59:06.003Z,3.33
2023-01-29T04:01:58.851Z,3.70
2023-01-29T04:04:32.420Z,4.63
2023-01-29T04:07:07.397Z,4.50
2023-01-29T04:09:43.378Z,4.17
2023-01-29T04:12:17.018Z,3.90
2023-01-29T04:14:46.397Z,5.00
2023-01-29T04:17:22.153Z,4.80
2023-01-29T04:20:03.934Z,4.67
2023-01-29T04:22:36.051Z,4.73
2023-01-29T04:25:08.947Z,5.00
2023-01-29T04:27:46.840Z,5.43
2023-01-29T04:30:24.998Z,5.00
2023-01-29T04:33:03.742Z,5.10
2023-01-29T04:35:49.244Z,4.70
2023-01-29T04:38:24.824Z,5.10
2023-01-29T04:41:02.049Z,6.50
2023-01-29T04:43:35.676Z,6.10
2023-01-29T04:46:18.586Z,6.77
2023-01-29T04:49:02.277Z,6.63
2023-01-29T04:51:42.589Z,6.50
2023-01-29T04:54:17.510Z,6.67
2023-01-29T04:56:54.060Z,7.00
2023-01-29T04:59:27.767Z,6.63
2023-01-29T05:01:56.701Z,6.27
2023-01-29T05:04:26.968Z,6.17
2023-01-29T05:06:57.289Z,6.00
2023-01-29T05:09:27.071Z,6.10
2023-01-29T05:11:56.698Z,6.03
2023-01-29T05:14:28.254Z,6.27
2023-01-29T05:16:58.485Z,6.30
2023-01-29T05:19:27.039Z,6.30
2023-01-29T05:21:57.420Z,7.47
2023-01-29T05:24:27.548Z,6.20
2023-01-29T05:27:13.358Z,6.10
2023-01-29T05:29:46.048Z,6.37
2023-01-29T05:32:15.264Z,6.90
2023-01-29T05:34:43.572Z,6.40
2023-01-29T05:37:13.268Z,6.90
2023-01-29T05:39:41.605Z,7.10
2023-01-29T05:42:10.216Z,7.00
2023-01-29T05:44:38.617Z,6.90
2023-01-29T05:47:07.018Z,6.80
2023-01-29T05:49:36.753Z,7.20
2023-01-29T05:52:06.830Z,6.70
2023-01-29T05:54:36.556Z,6.20
2023-01-29T05:57:05.255Z,6.90
2023-01-29T05:59:33.652Z,6.93
2023-01-29T06:02:02.132Z,6.43
2023-01-29T06:04:30.674Z,7.43
2023-01-29T06:06:59.114Z,7.13
2023-01-29T06:09:27.624Z,32.13
2023-01-29T06:11:57.346Z,30.60
2023-01-29T06:14:25.709Z,28.57
2023-01-29T06:16:54.027Z,23.80
2023-01-29T06:19:24.291Z,17.37
2023-01-29T06:21:54.997Z,13.27
2023-01-29T06:24:23.785Z,10.53
2023-01-29T06:26:53.040Z,8.80
2023-01-29T06:29:24.212Z,8.80
2023-01-29T06:31:52.810Z,9.17
2023-01-29T06:34:21.704Z,10.27
2023-01-29T06:36:50.242Z,9.20
2023-01-29T06:39:18.666Z,9.50
2023-01-29T06:41:47.087Z,9.40
2023-01-29T06:44:18.481Z,10.73
2023-01-29T22:32:03.603Z,14.97
2023-01-29T22:34:33.065Z,16.87
2023-01-29T22:37:01.895Z,18.10
2023-01-29T22:39:31.385Z,16.73
2023-01-29T22:42:00.024Z,16.07
2023-01-29T22:44:29.881Z,14.63
2023-01-29T22:46:58.857Z,14.87
2023-01-29T22:49:32.758Z,15.17
2023-01-29T22:52:13.826Z,15.13
2023-01-29T22:54:43.556Z,14.70
2023-01-29T22:57:13.341Z,15.17
2023-01-29T22:59:42.374Z,15.30
2023-01-29T23:02:11.111Z,14.97
2023-01-29T23:04:40.916Z,15.50
2023-01-29T23:07:09.232Z,14.00
2023-01-29T23:09:37.604Z,15.17
2023-01-29T23:12:06.668Z,15.70
2023-01-29T23:14:35.143Z,15.03
2023-01-29T23:17:06.425Z,17.40
2023-01-29T23:19:35.336Z,15.10
2023-01-29T23:22:05.352Z,14.13
2023-01-29T23:24:34.387Z,14.80
2023-01-29T23:27:16.718Z,13.30
2023-01-29T23:29:46.869Z,13.27
2023-01-29T23:32:17.726Z,13.13
2023-01-29T23:34:46.403Z,12.53
2023-01-29T23:37:16.223Z,12.93
2023-01-29T23:39:44.675Z,13.47
2023-01-29T23:42:13.239Z,13.47
2023-01-29T23:44:42.739Z,12.73
2023-01-29T23:47:11.666Z,12.97
2023-01-29T23:49:40.020Z,13.03
2023-01-29T23:52:08.417Z,14.60
2023-01-29T23:54:38.136Z,13.30
2023-01-29T23:57:06.539Z,13.30
2023-01-29T23:59:35.152Z,13.43
